sensor_id;sensor_type;location;lat;lon;timestamp;P1;durP1;ratioP1;P2;durP2;ratioP2
53931;SDS011;39844;52.496;13.482;2024-03-07T00:01:53;47.80;;;18.67;;
53931;SDS011;39844;52.496;13.482;2024-03-07T00:04:18;40.57;;;17.10;;
53931;SDS011;39844;52.496;13.482;2024-03-07T00:06:44;48.47;;;17.27;;
53931;SDS011;39844;52.496;13.482;2024-03-07T00:09:09;55.73;;;17.17;;
53931;SDS011;39844;52.496;13.482;2024-03-07T00:11:34;44.57;;;16.27;;
53931;SDS011;39844;52.496;13.482;2024-03-07T00:13:59;42.17;;;15.67;;
53931;SDS011;39844;52.496;13.482;2024-03-07T00:16:25;29.87;;;13.73;;
53931;SDS011;39844;52.496;13.482;2024-03-07T00:18:50;50.90;;;14.93;;
53931;SDS011;39844;52.496;13.482;2024-03-07T00:21:15;38.47;;;15.13;;
53931;SDS011;39844;52.496;13.482;2024-03-07T00:23:43;40.70;;;16.40;;
53931;SDS011;39844;52.496;13.482;2024-03-07T00:26:08;35.93;;;14.67;;
53931;SDS011;39844;52.496;13.482;2024-03-07T00:28:33;42.53;;;14.77;;
53931;SDS011;39844;52.496;13.482;2024-03-07T00:30:58;39.57;;;14.77;;
53931;SDS011;39844;52.496;13.482;2024-03-07T00:33:24;39.37;;;15.30;;
53931;SDS011;39844;52.496;13.482;2024-03-07T00:35:49;39.53;;;15.33;;
53931;SDS011;39844;52.496;13.482;2024-03-07T00:38:14;44.43;;;16.13;;
53931;SDS011;39844;52.496;13.482;2024-03-07T00:40:40;48.30;;;15.73;;
53931;SDS011;39844;52.496;13.482;2024-03-07T00:43:05;43.10;;;15.47;;
53931;SDS011;39844;52.496;13.482;2024-03-07T00:45:30;51.13;;;17.07;;
53931;SDS011;39844;52.496;13.482;2024-03-07T00:47:55;44.07;;;14.53;;
53931;SDS011;39844;52.496;13.482;2024-03-07T00:50:21;48.10;;;15.10;;
53931;SDS011;39844;52.496;13.482;2024-03-07T00:52:46;49.27;;;15.43;;
53931;SDS011;39844;52.496;13.482;2024-03-07T00:55:11;39.60;;;16.07;;
53931;SDS011;39844;52.496;13.482;2024-03-07T00:57:37;47.07;;;16.03;;
53931;SDS011;39844;52.496;13.482;2024-03-07T01:00:02;55.00;;;15.60;;
53931;SDS011;39844;52.496;13.482;2024-03-07T01:02:28;40.43;;;15.80;;
53931;SDS011;39844;52.496;13.482;2024-03-07T01:04:53;53.73;;;15.43;;
53931;SDS011;39844;52.496;13.482;2024-03-07T01:07:18;39.87;;;14.23;;
53931;SDS011;39844;52.496;13.482;2024-03-07T01:09:43;40.73;;;15.17;;
53931;SDS011;39844;52.496;13.482;2024-03-07T01:12:09;55.03;;;15.13;;
53931;SDS011;39844;52.496;13.482;2024-03-07T01:14:34;41.20;;;14.60;;
53931;SDS011;39844;52.496;13.482;2024-03-07T01:16:59;56.40;;;16.77;;
53931;SDS011;39844;52.496;13.482;2024-03-07T01:19:25;44.97;;;16.07;;
53931;SDS011;39844;52.496;13.482;2024-03-07T01:21:50;51.07;;;17.17;;
53931;SDS011;39844;52.496;13.482;2024-03-07T01:24:15;40.20;;;14.03;;
53931;SDS011;39844;52.496;13.482;2024-03-07T01:26:40;41.57;;;15.43;;
53931;SDS011;39844;52.496;13.482;2024-03-07T01:29:06;52.63;;;15.67;;
53931;SDS011;39844;52.496;13.482;2024-03-07T01:31:31;45.73;;;15.13;;
53931;SDS011;39844;52.496;13.482;2024-03-07T01:33:58;43.17;;;15.50;;
53931;SDS011;39844;52.496;13.482;2024-03-07T01:36:24;52.47;;;15.77;;
53931;SDS011;39844;52.496;13.482;2024-03-07T01:38:49;49.00;;;16.30;;
53931;SDS011;39844;52.496;13.482;2024-03-07T01:41:14;36.77;;;15.50;;
53931;SDS011;39844;52.496;13.482;2024-03-07T01:43:40;45.33;;;16.60;;
53931;SDS011;39844;52.496;13.482;2024-03-07T01:46:06;37.23;;;14.40;;
53931;SDS011;39844;52.496;13.482;2024-03-07T01:48:31;45.43;;;16.20;;
53931;SDS011;39844;52.496;13.482;2024-03-07T01:50:58;37.13;;;15.00;;
53931;SDS011;39844;52.496;13.482;2024-03-07T01:53:25;39.70;;;14.53;;
53931;SDS011;39844;52.496;13.482;2024-03-07T01:55:52;31.30;;;12.73;;
53931;SDS011;39844;52.496;13.482;2024-03-07T01:58:18;33.83;;;13.87;;
53931;SDS011;39844;52.496;13.482;2024-03-07T02:00:43;39.40;;;14.80;;
53931;SDS011;39844;52.496;13.482;2024-03-07T02:03:09;40.87;;;15.50;;
53931;SDS011;39844;52.496;13.482;2024-03-07T02:05:34;36.43;;;14.77;;
53931;SDS011;39844;52.496;13.482;2024-03-07T02:08:00;51.83;;;14.57;;
53931;SDS011;39844;52.496;13.482;2024-03-07T02:10:25;31.63;;;13.90;;
53931;SDS011;39844;52.496;13.482;2024-03-07T02:12:50;35.83;;;13.43;;
53931;SDS011;39844;52.496;13.482;2024-03-07T02:15:16;38.63;;;14.07;;
53931;SDS011;39844;52.496;13.482;2024-03-07T02:17:41;37.10;;;14.13;;
53931;SDS011;39844;52.496;13.482;2024-03-07T02:20:06;33.13;;;12.70;;
53931;SDS011;39844;52.496;13.482;2024-03-07T02:22:32;35.83;;;13.93;;
53931;SDS011;39844;52.496;13.482;2024-03-07T02:24:57;44.90;;;14.03;;
53931;SDS011;39844;52.496;13.482;2024-03-07T02:27:23;28.80;;;11.97;;
53931;SDS011;39844;52.496;13.482;2024-03-07T02:29:48;36.20;;;14.73;;
53931;SDS011;39844;52.496;13.482;2024-03-07T02:32:13;40.10;;;14.27;;
53931;SDS011;39844;52.496;13.482;2024-03-07T02:34:38;41.57;;;14.13;;
53931;SDS011;39844;52.496;13.482;2024-03-07T02:37:04;44.27;;;14.13;;
53931;SDS011;39844;52.496;13.482;2024-03-07T02:39:29;35.00;;;13.67;;
53931;SDS011;39844;52.496;13.482;2024-03-07T02:41:54;36.67;;;13.63;;
53931;SDS011;39844;52.496;13.482;2024-03-07T02:44:20;38.27;;;15.60;;
53931;SDS011;39844;52.496;13.482;2024-03-07T02:46:45;46.40;;;15.40;;
53931;SDS011;39844;52.496;13.482;2024-03-07T02:49:11;40.63;;;14.40;;
53931;SDS011;39844;52.496;13.482;2024-03-07T02:51:36;39.83;;;13.93;;
53931;SDS011;39844;52.496;13.482;2024-03-07T02:54:01;41.23;;;14.67;;
53931;SDS011;39844;52.496;13.482;2024-03-07T02:56:26;36.33;;;14.20;;
53931;SDS011;39844;52.496;13.482;2024-03-07T02:58:52;37.17;;;14.43;;
53931;SDS011;39844;52.496;13.482;2024-03-07T03:01:17;37.53;;;15.40;;
53931;SDS011;39844;52.496;13.482;2024-03-07T03:03:43;34.10;;;13.57;;
53931;SDS011;39844;52.496;13.482;2024-03-07T03:06:08;41.17;;;15.17;;
53931;SDS011;39844;52.496;13.482;2024-03-07T03:08:34;36.70;;;14.17;;
53931;SDS011;39844;52.496;13.482;2024-03-07T03:11:00;35.30;;;14.43;;
53931;SDS011;39844;52.496;13.482;2024-03-07T03:13:25;35.33;;;14.60;;
53931;SDS011;39844;52.496;13.482;2024-03-07T03:15:51;29.07;;;14.07;;
53931;SDS011;39844;52.496;13.482;2024-03-07T03:18:16;28.97;;;12.90;;
53931;SDS011;39844;52.496;13.482;2024-03-07T03:20:41;34.13;;;14.77;;
53931;SDS011;39844;52.496;13.482;2024-03-07T03:23:07;35.00;;;13.87;;
53931;SDS011;39844;52.496;13.482;2024-03-07T03:25:32;37.27;;;13.60;;
53931;SDS011;39844;52.496;13.482;2024-03-07T03:27:57;32.10;;;13.30;;
53931;SDS011;39844;52.496;13.482;2024-03-07T03:30:23;33.03;;;14.87;;
53931;SDS011;39844;52.496;13.482;2024-03-07T03:32:48;30.43;;;13.50;;
53931;SDS011;39844;52.496;13.482;2024-03-07T03:35:14;42.80;;;14.53;;
53931;SDS011;39844;52.496;13.482;2024-03-07T03:37:40;33.47;;;14.77;;
53931;SDS011;39844;52.496;13.482;2024-03-07T03:40:06;35.30;;;14.70;;
53931;SDS011;39844;52.496;13.482;2024-03-07T03:42:33;36.00;;;13.87;;
53931;SDS011;39844;52.496;13.482;2024-03-07T03:44:58;31.17;;;13.93;;
53931;SDS011;39844;52.496;13.482;2024-03-07T03:47:24;31.23;;;13.50;;
53931;SDS011;39844;52.496;13.482;2024-03-07T03:49:49;28.57;;;13.03;;
53931;SDS011;39844;52.496;13.482;2024-03-07T03:52:14;30.07;;;14.40;;
53931;SDS011;39844;52.496;13.482;2024-03-07T03:54:40;24.07;;;12.37;;
53931;SDS011;39844;52.496;13.482;2024-03-07T03:57:05;26.97;;;13.23;;
53931;SDS011;39844;52.496;13.482;2024-03-07T03:59:30;28.73;;;13.20;;
53931;SDS011;39844;52.496;13.482;2024-03-07T04:01:55;25.00;;;12.70;;
53931;SDS011;39844;52.496;13.482;2024-03-07T04:04:21;22.40;;;11.97;;
53931;SDS011;39844;52.496;13.482;2024-03-07T04:06:46;39.33;;;14.20;;
53931;SDS011;39844;52.496;13.482;2024-03-07T04:09:11;27.23;;;12.87;;
53931;SDS011;39844;52.496;13.482;2024-03-07T04:11:37;30.03;;;12.67;;
53931;SDS011;39844;52.496;13.482;2024-03-07T04:14:02;26.37;;;13.00;;
53931;SDS011;39844;52.496;13.482;2024-03-07T04:16:27;28.90;;;12.97;;
53931;SDS011;39844;52.496;13.482;2024-03-07T04:18:52;28.70;;;11.53;;
53931;SDS011;39844;52.496;13.482;2024-03-07T04:21:18;29.17;;;11.67;;
53931;SDS011;39844;52.496;13.482;2024-03-07T04:23:43;26.90;;;13.13;;
53931;SDS011;39844;52.496;13.482;2024-03-07T04:26:08;26.87;;;11.80;;
53931;SDS011;39844;52.496;13.482;2024-03-07T04:28:34;26.30;;;12.67;;
53931;SDS011;39844;52.496;13.482;2024-03-07T04:30:59;27.00;;;11.57;;
53931;SDS011;39844;52.496;13.482;2024-03-07T04:33:24;26.67;;;12.10;;
53931;SDS011;39844;52.496;13.482;2024-03-07T04:35:50;21.40;;;12.23;;
53931;SDS011;39844;52.496;13.482;2024-03-07T04:38:15;26.97;;;12.60;;
53931;SDS011;39844;52.496;13.482;2024-03-07T04:40:43;22.20;;;11.10;;
53931;SDS011;39844;52.496;13.482;2024-03-07T04:43:09;30.23;;;11.97;;
53931;SDS011;39844;52.496;13.482;2024-03-07T04:45:34;28.13;;;12.77;;
53931;SDS011;39844;52.496;13.482;2024-03-07T04:47:59;22.93;;;12.70;;
53931;SDS011;39844;52.496;13.482;2024-03-07T04:50:25;29.37;;;13.10;;
53931;SDS011;39844;52.496;13.482;2024-03-07T04:52:50;20.17;;;11.03;;
53931;SDS011;39844;52.496;13.482;2024-03-07T04:55:15;21.33;;;11.50;;
53931;SDS011;39844;52.496;13.482;2024-03-07T04:57:41;26.13;;;11.40;;
53931;SDS011;39844;52.496;13.482;2024-03-07T05:00:10;27.47;;;11.67;;
53931;SDS011;39844;52.496;13.482;2024-03-07T05:02:37;29.40;;;11.37;;
53931;SDS011;39844;52.496;13.482;2024-03-07T05:05:02;27.40;;;11.87;;
53931;SDS011;39844;52.496;13.482;2024-03-07T05:07:28;22.53;;;11.43;;
53931;SDS011;39844;52.496;13.482;2024-03-07T05:09:53;20.10;;;11.37;;
53931;SDS011;39844;52.496;13.482;2024-03-07T05:12:18;36.90;;;12.77;;
53931;SDS011;39844;52.496;13.482;2024-03-07T05:14:43;27.23;;;11.93;;
53931;SDS011;39844;52.496;13.482;2024-03-07T05:17:09;31.57;;;12.97;;
53931;SDS011;39844;52.496;13.482;2024-03-07T05:19:34;26.40;;;12.60;;
53931;SDS011;39844;52.496;13.482;2024-03-07T05:22:00;21.70;;;11.33;;
53931;SDS011;39844;52.496;13.482;2024-03-07T05:24:26;32.37;;;11.50;;
53931;SDS011;39844;52.496;13.482;2024-03-07T05:26:52;21.83;;;11.73;;
53931;SDS011;39844;52.496;13.482;2024-03-07T05:29:17;28.27;;;12.27;;
53931;SDS011;39844;52.496;13.482;2024-03-07T05:31:43;23.03;;;11.37;;
53931;SDS011;39844;52.496;13.482;2024-03-07T05:34:08;25.93;;;11.83;;
53931;SDS011;39844;52.496;13.482;2024-03-07T05:36:36;28.70;;;12.77;;
53931;SDS011;39844;52.496;13.482;2024-03-07T05:39:02;19.83;;;10.60;;
53931;SDS011;39844;52.496;13.482;2024-03-07T05:41:28;20.50;;;10.77;;
53931;SDS011;39844;52.496;13.482;2024-03-07T05:43:53;21.10;;;11.17;;
53931;SDS011;39844;52.496;13.482;2024-03-07T05:46:19;27.37;;;11.40;;
53931;SDS011;39844;52.496;13.482;2024-03-07T05:48:44;23.43;;;10.67;;
53931;SDS011;39844;52.496;13.482;2024-03-07T05:51:09;20.33;;;11.70;;
53931;SDS011;39844;52.496;13.482;2024-03-07T05:53:34;20.33;;;10.70;;
53931;SDS011;39844;52.496;13.482;2024-03-07T05:56:00;30.10;;;11.67;;
53931;SDS011;39844;52.496;13.482;2024-03-07T05:58:25;22.70;;;10.50;;
53931;SDS011;39844;52.496;13.482;2024-03-07T06:00:50;19.00;;;9.90;;
53931;SDS011;39844;52.496;13.482;2024-03-07T06:03:16;17.07;;;10.23;;
53931;SDS011;39844;52.496;13.482;2024-03-07T06:05:42;22.23;;;10.07;;
53931;SDS011;39844;52.496;13.482;2024-03-07T06:08:07;21.47;;;9.60;;
53931;SDS011;39844;52.496;13.482;2024-03-07T06:10:32;21.63;;;9.40;;
53931;SDS011;39844;52.496;13.482;2024-03-07T06:12:58;17.50;;;10.03;;
53931;SDS011;39844;52.496;13.482;2024-03-07T06:15:23;20.43;;;10.07;;
53931;SDS011;39844;52.496;13.482;2024-03-07T06:17:48;19.00;;;10.07;;
53931;SDS011;39844;52.496;13.482;2024-03-07T06:20:13;17.93;;;9.53;;
53931;SDS011;39844;52.496;13.482;2024-03-07T06:22:39;20.53;;;9.93;;
53931;SDS011;39844;52.496;13.482;2024-03-07T06:25:04;21.27;;;11.20;;
53931;SDS011;39844;52.496;13.482;2024-03-07T06:27:30;23.40;;;11.50;;
53931;SDS011;39844;52.496;13.482;2024-03-07T06:29:55;20.80;;;9.17;;
53931;SDS011;39844;52.496;13.482;2024-03-07T06:32:20;20.60;;;10.10;;
53931;SDS011;39844;52.496;13.482;2024-03-07T06:34:46;17.07;;;9.43;;
53931;SDS011;39844;52.496;13.482;2024-03-07T06:37:11;12.50;;;7.97;;
53931;SDS011;39844;52.496;13.482;2024-03-07T06:39:36;20.97;;;10.03;;
53931;SDS011;39844;52.496;13.482;2024-03-07T06:42:01;17.07;;;8.93;;
53931;SDS011;39844;52.496;13.482;2024-03-07T06:44:27;15.13;;;7.60;;
53931;SDS011;39844;52.496;13.482;2024-03-07T06:46:52;15.13;;;8.03;;
53931;SDS011;39844;52.496;13.482;2024-03-07T06:49:17;14.27;;;8.37;;
53931;SDS011;39844;52.496;13.482;2024-03-07T06:51:43;17.63;;;8.03;;
53931;SDS011;39844;52.496;13.482;2024-03-07T06:54:08;17.70;;;8.63;;
53931;SDS011;39844;52.496;13.482;2024-03-07T06:56:33;15.17;;;8.00;;
53931;SDS011;39844;52.496;13.482;2024-03-07T06:58:59;17.83;;;8.73;;
53931;SDS011;39844;52.496;13.482;2024-03-07T07:01:24;15.90;;;8.57;;
53931;SDS011;39844;52.496;13.482;2024-03-07T07:03:49;16.50;;;9.27;;
53931;SDS011;39844;52.496;13.482;2024-03-07T07:06:15;16.63;;;8.40;;
53931;SDS011;39844;52.496;13.482;2024-03-07T07:08:40;15.27;;;8.07;;
53931;SDS011;39844;52.496;13.482;2024-03-07T07:11:06;16.97;;;8.60;;
53931;SDS011;39844;52.496;13.482;2024-03-07T07:13:31;13.23;;;8.03;;
53931;SDS011;39844;52.496;13.482;2024-03-07T07:15:56;13.80;;;7.67;;
53931;SDS011;39844;52.496;13.482;2024-03-07T07:18:22;16.10;;;8.60;;
53931;SDS011;39844;52.496;13.482;2024-03-07T07:20:47;21.17;;;7.73;;
53931;SDS011;39844;52.496;13.482;2024-03-07T07:23:12;10.90;;;7.17;;
53931;SDS011;39844;52.496;13.482;2024-03-07T07:25:38;16.33;;;7.93;;
53931;SDS011;39844;52.496;13.482;2024-03-07T07:28:03;14.57;;;7.80;;
53931;SDS011;39844;52.496;13.482;2024-03-07T07:30:29;13.43;;;7.03;;
53931;SDS011;39844;52.496;13.482;2024-03-07T07:32:54;16.23;;;8.77;;
53931;SDS011;39844;52.496;13.482;2024-03-07T07:35:20;13.37;;;7.97;;
53931;SDS011;39844;52.496;13.482;2024-03-07T07:37:46;13.63;;;7.03;;
53931;SDS011;39844;52.496;13.482;2024-03-07T07:40:15;13.10;;;7.67;;
53931;SDS011;39844;52.496;13.482;2024-03-07T07:42:41;13.73;;;7.57;;
53931;SDS011;39844;52.496;13.482;2024-03-07T07:45:10;16.53;;;7.27;;
53931;SDS011;39844;52.496;13.482;2024-03-07T07:47:39;21.97;;;8.67;;
53931;SDS011;39844;52.496;13.482;2024-03-07T07:50:15;20.77;;;8.83;;
53931;SDS011;39844;52.496;13.482;2024-03-07T07:52:42;9.07;;;6.97;;
53931;SDS011;39844;52.496;13.482;2024-03-07T07:55:08;16.43;;;7.83;;
53931;SDS011;39844;52.496;13.482;2024-03-07T07:57:34;14.40;;;7.57;;
53931;SDS011;39844;52.496;13.482;2024-03-07T07:59:59;16.17;;;7.87;;
53931;SDS011;39844;52.496;13.482;2024-03-07T08:02:24;12.13;;;8.03;;
53931;SDS011;39844;52.496;13.482;2024-03-07T08:04:50;17.40;;;7.00;;
53931;SDS011;39844;52.496;13.482;2024-03-07T08:07:15;11.27;;;7.07;;
53931;SDS011;39844;52.496;13.482;2024-03-07T08:09:40;10.43;;;6.47;;
53931;SDS011;39844;52.496;13.482;2024-03-07T08:12:08;12.13;;;6.60;;
53931;SDS011;39844;52.496;13.482;2024-03-07T08:14:33;12.33;;;6.70;;
53931;SDS011;39844;52.496;13.482;2024-03-07T08:16:58;12.23;;;6.80;;
53931;SDS011;39844;52.496;13.482;2024-03-07T08:19:24;15.07;;;6.57;;
53931;SDS011;39844;52.496;13.482;2024-03-07T08:21:49;17.00;;;7.93;;
53931;SDS011;39844;52.496;13.482;2024-03-07T08:24:14;13.90;;;6.60;;
53931;SDS011;39844;52.496;13.482;2024-03-07T08:26:40;12.43;;;7.17;;
53931;SDS011;39844;52.496;13.482;2024-03-07T08:29:05;8.97;;;6.00;;
53931;SDS011;39844;52.496;13.482;2024-03-07T08:31:30;12.27;;;7.13;;
53931;SDS011;39844;52.496;13.482;2024-03-07T08:33:56;11.67;;;6.97;;
53931;SDS011;39844;52.496;13.482;2024-03-07T08:36:21;11.63;;;6.97;;
53931;SDS011;39844;52.496;13.482;2024-03-07T08:38:46;12.93;;;6.73;;
53931;SDS011;39844;52.496;13.482;2024-03-07T08:41:11;11.80;;;6.43;;
53931;SDS011;39844;52.496;13.482;2024-03-07T08:43:37;12.53;;;6.87;;
53931;SDS011;39844;52.496;13.482;2024-03-07T08:46:02;11.10;;;6.67;;
53931;SDS011;39844;52.496;13.482;2024-03-07T08:48:27;12.77;;;7.67;;
53931;SDS011;39844;52.496;13.482;2024-03-07T08:50:53;10.47;;;6.67;;
53931;SDS011;39844;52.496;13.482;2024-03-07T08:53:18;16.67;;;6.70;;
53931;SDS011;39844;52.496;13.482;2024-03-07T08:55:43;11.93;;;6.13;;
53931;SDS011;39844;52.496;13.482;2024-03-07T08:58:09;9.93;;;6.33;;
53931;SDS011;39844;52.496;13.482;2024-03-07T09:00:34;10.53;;;6.60;;
53931;SDS011;39844;52.496;13.482;2024-03-07T09:03:00;11.03;;;6.70;;
53931;SDS011;39844;52.496;13.482;2024-03-07T09:05:25;11.60;;;6.87;;
53931;SDS011;39844;52.496;13.482;2024-03-07T09:07:52;11.63;;;6.83;;
53931;SDS011;39844;52.496;13.482;2024-03-07T09:10:18;9.93;;;6.33;;
53931;SDS011;39844;52.496;13.482;2024-03-07T09:12:43;11.87;;;6.80;;
53931;SDS011;39844;52.496;13.482;2024-03-07T09:15:10;11.00;;;6.17;;
53931;SDS011;39844;52.496;13.482;2024-03-07T09:17:35;12.07;;;6.53;;
53931;SDS011;39844;52.496;13.482;2024-03-07T09:20:01;13.20;;;5.70;;
53931;SDS011;39844;52.496;13.482;2024-03-07T09:22:27;8.80;;;5.73;;
53931;SDS011;39844;52.496;13.482;2024-03-07T09:24:52;9.47;;;6.50;;
53931;SDS011;39844;52.496;13.482;2024-03-07T09:27:17;9.53;;;6.20;;
53931;SDS011;39844;52.496;13.482;2024-03-07T09:29:42;9.73;;;6.43;;
53931;SDS011;39844;52.496;13.482;2024-03-07T09:32:08;9.33;;;6.30;;
53931;SDS011;39844;52.496;13.482;2024-03-07T09:34:33;9.67;;;5.80;;
53931;SDS011;39844;52.496;13.482;2024-03-07T09:36:58;10.93;;;6.33;;
53931;SDS011;39844;52.496;13.482;2024-03-07T09:39:23;9.53;;;5.97;;
53931;SDS011;39844;52.496;13.482;2024-03-07T09:41:49;8.43;;;5.63;;
53931;SDS011;39844;52.496;13.482;2024-03-07T09:44:15;8.53;;;5.13;;
53931;SDS011;39844;52.496;13.482;2024-03-07T09:46:42;6.83;;;5.20;;
53931;SDS011;39844;52.496;13.482;2024-03-07T09:49:11;11.63;;;5.70;;
53931;SDS011;39844;52.496;13.482;2024-03-07T09:51:38;9.27;;;5.60;;
53931;SDS011;39844;52.496;13.482;2024-03-07T09:54:04;19.13;;;5.80;;
53931;SDS011;39844;52.496;13.482;2024-03-07T09:56:30;14.27;;;5.90;;
53931;SDS011;39844;52.496;13.482;2024-03-07T09:58:57;8.90;;;5.47;;
53931;SDS011;39844;52.496;13.482;2024-03-07T10:01:25;7.23;;;5.00;;
53931;SDS011;39844;52.496;13.482;2024-03-07T10:03:52;15.03;;;6.23;;
53931;SDS011;39844;52.496;13.482;2024-03-07T10:06:25;8.57;;;6.07;;
53931;SDS011;39844;52.496;13.482;2024-03-07T10:08:50;7.73;;;5.60;;
53931;SDS011;39844;52.496;13.482;2024-03-07T10:11:16;6.70;;;5.20;;
53931;SDS011;39844;52.496;13.482;2024-03-07T10:13:41;7.33;;;5.17;;
53931;SDS011;39844;52.496;13.482;2024-03-07T10:16:07;9.20;;;5.90;;
53931;SDS011;39844;52.496;13.482;2024-03-07T10:18:32;9.60;;;5.40;;
53931;SDS011;39844;52.496;13.482;2024-03-07T10:20:58;8.30;;;5.40;;
53931;SDS011;39844;52.496;13.482;2024-03-07T10:23:24;9.37;;;4.83;;
53931;SDS011;39844;52.496;13.482;2024-03-07T10:25:52;11.10;;;5.13;;
53931;SDS011;39844;52.496;13.482;2024-03-07T10:28:17;10.60;;;5.87;;
53931;SDS011;39844;52.496;13.482;2024-03-07T10:30:45;8.17;;;4.93;;
53931;SDS011;39844;52.496;13.482;2024-03-07T10:33:11;7.83;;;5.50;;
53931;SDS011;39844;52.496;13.482;2024-03-07T10:35:37;6.53;;;4.50;;
53931;SDS011;39844;52.496;13.482;2024-03-07T10:38:02;8.73;;;5.47;;
53931;SDS011;39844;52.496;13.482;2024-03-07T10:40:28;12.80;;;5.37;;
53931;SDS011;39844;52.496;13.482;2024-03-07T10:42:55;9.67;;;4.63;;
53931;SDS011;39844;52.496;13.482;2024-03-07T10:45:22;9.03;;;5.73;;
53931;SDS011;39844;52.496;13.482;2024-03-07T10:47:49;10.30;;;5.40;;
53931;SDS011;39844;52.496;13.482;2024-03-07T10:53:24;7.43;;;4.77;;
53931;SDS011;39844;52.496;13.482;2024-03-07T10:58:57;10.50;;;4.80;;
53931;SDS011;39844;52.496;13.482;2024-03-07T11:01:26;15.57;;;5.80;;
53931;SDS011;39844;52.496;13.482;2024-03-07T11:03:56;8.23;;;5.37;;
53931;SDS011;39844;52.496;13.482;2024-03-07T11:06:21;7.67;;;5.57;;
53931;SDS011;39844;52.496;13.482;2024-03-07T11:08:49;11.47;;;6.17;;
53931;SDS011;39844;52.496;13.482;2024-03-07T11:11:16;9.90;;;5.90;;
53931;SDS011;39844;52.496;13.482;2024-03-07T11:13:42;10.20;;;5.50;;
53931;SDS011;39844;52.496;13.482;2024-03-07T11:16:09;13.73;;;5.77;;
53931;SDS011;39844;52.496;13.482;2024-03-07T11:18:35;13.00;;;5.97;;
53931;SDS011;39844;52.496;13.482;2024-03-07T11:21:00;9.40;;;5.00;;
53931;SDS011;39844;52.496;13.482;2024-03-07T11:28:28;8.37;;;5.43;;
53931;SDS011;39844;52.496;13.482;2024-03-07T11:30:54;7.97;;;5.60;;
53931;SDS011;39844;52.496;13.482;2024-03-07T11:33:31;6.23;;;5.30;;
53931;SDS011;39844;52.496;13.482;2024-03-07T11:35:56;9.57;;;5.37;;
53931;SDS011;39844;52.496;13.482;2024-03-07T11:38:22;8.73;;;5.57;;
53931;SDS011;39844;52.496;13.482;2024-03-07T11:40:59;9.87;;;5.63;;
53931;SDS011;39844;52.496;13.482;2024-03-07T11:43:26;9.63;;;5.87;;
53931;SDS011;39844;52.496;13.482;2024-03-07T11:45:52;10.13;;;5.80;;
53931;SDS011;39844;52.496;13.482;2024-03-07T11:48:17;9.27;;;6.53;;
53931;SDS011;39844;52.496;13.482;2024-03-07T11:50:43;6.70;;;5.20;;
53931;SDS011;39844;52.496;13.482;2024-03-07T11:53:08;13.40;;;6.07;;
53931;SDS011;39844;52.496;13.482;2024-03-07T11:55:34;9.53;;;5.80;;
53931;SDS011;39844;52.496;13.482;2024-03-07T11:58:00;10.07;;;5.73;;
53931;SDS011;39844;52.496;13.482;2024-03-07T12:00:25;9.63;;;5.87;;
53931;SDS011;39844;52.496;13.482;2024-03-07T12:02:53;12.57;;;6.83;;
53931;SDS011;39844;52.496;13.482;2024-03-07T12:05:19;10.73;;;5.90;;
53931;SDS011;39844;52.496;13.482;2024-03-07T12:07:44;9.77;;;5.90;;
53931;SDS011;39844;52.496;13.482;2024-03-07T12:10:10;11.97;;;5.93;;
53931;SDS011;39844;52.496;13.482;2024-03-07T12:12:35;10.27;;;6.13;;
53931;SDS011;39844;52.496;13.482;2024-03-07T12:15:01;12.70;;;6.60;;
53931;SDS011;39844;52.496;13.482;2024-03-07T12:17:27;9.93;;;6.40;;
53931;SDS011;39844;52.496;13.482;2024-03-07T12:19:52;11.43;;;6.00;;
53931;SDS011;39844;52.496;13.482;2024-03-07T12:22:20;9.40;;;5.30;;
53931;SDS011;39844;52.496;13.482;2024-03-07T12:24:46;10.77;;;5.87;;
53931;SDS011;39844;52.496;13.482;2024-03-07T12:27:12;11.07;;;5.53;;
53931;SDS011;39844;52.496;13.482;2024-03-07T12:29:41;11.93;;;5.67;;
53931;SDS011;39844;52.496;13.482;2024-03-07T12:32:07;10.50;;;5.93;;
53931;SDS011;39844;52.496;13.482;2024-03-07T12:34:36;10.97;;;6.60;;
53931;SDS011;39844;52.496;13.482;2024-03-07T12:37:02;13.07;;;6.47;;
53931;SDS011;39844;52.496;13.482;2024-03-07T12:39:28;10.80;;;6.13;;
53931;SDS011;39844;52.496;13.482;2024-03-07T12:41:57;11.50;;;5.93;;
53931;SDS011;39844;52.496;13.482;2024-03-07T12:44:22;11.00;;;6.13;;
53931;SDS011;39844;52.496;13.482;2024-03-07T12:46:48;10.87;;;6.93;;
53931;SDS011;39844;52.496;13.482;2024-03-07T12:49:16;11.00;;;6.87;;
53931;SDS011;39844;52.496;13.482;2024-03-07T12:51:42;11.13;;;7.40;;
53931;SDS011;39844;52.496;13.482;2024-03-07T12:54:07;10.50;;;5.37;;
53931;SDS011;39844;52.496;13.482;2024-03-07T12:56:33;9.00;;;6.00;;
53931;SDS011;39844;52.496;13.482;2024-03-07T12:58:58;13.93;;;6.97;;
53931;SDS011;39844;52.496;13.482;2024-03-07T13:01:23;13.00;;;6.90;;
53931;SDS011;39844;52.496;13.482;2024-03-07T13:03:49;13.73;;;7.27;;
53931;SDS011;39844;52.496;13.482;2024-03-07T13:06:14;12.53;;;6.97;;
53931;SDS011;39844;52.496;13.482;2024-03-07T13:08:39;11.87;;;6.63;;
53931;SDS011;39844;52.496;13.482;2024-03-07T13:11:04;11.37;;;7.00;;
53931;SDS011;39844;52.496;13.482;2024-03-07T13:13:31;12.27;;;5.97;;
53931;SDS011;39844;52.496;13.482;2024-03-07T13:15:57;9.83;;;6.20;;
53931;SDS011;39844;52.496;13.482;2024-03-07T13:18:22;9.00;;;6.13;;
53931;SDS011;39844;52.496;13.482;2024-03-07T13:20:47;10.50;;;6.03;;
53931;SDS011;39844;52.496;13.482;2024-03-07T13:23:13;10.73;;;6.33;;
53931;SDS011;39844;52.496;13.482;2024-03-07T13:25:38;9.77;;;6.43;;
53931;SDS011;39844;52.496;13.482;2024-03-07T13:28:05;7.83;;;5.73;;
53931;SDS011;39844;52.496;13.482;2024-03-07T13:30:33;11.53;;;6.23;;
53931;SDS011;39844;52.496;13.482;2024-03-07T13:32:59;10.93;;;6.40;;
53931;SDS011;39844;52.496;13.482;2024-03-07T13:35:25;9.47;;;6.20;;
53931;SDS011;39844;52.496;13.482;2024-03-07T13:37:51;6.97;;;5.70;;
53931;SDS011;39844;52.496;13.482;2024-03-07T13:40:17;8.27;;;6.27;;
53931;SDS011;39844;52.496;13.482;2024-03-07T13:42:43;12.47;;;6.37;;
53931;SDS011;39844;52.496;13.482;2024-03-07T13:45:09;8.93;;;6.23;;
53931;SDS011;39844;52.496;13.482;2024-03-07T13:47:34;8.73;;;5.67;;
53931;SDS011;39844;52.496;13.482;2024-03-07T13:50:00;11.37;;;6.07;;
53931;SDS011;39844;52.496;13.482;2024-03-07T13:52:25;10.20;;;6.40;;
53931;SDS011;39844;52.496;13.482;2024-03-07T13:54:50;12.17;;;6.93;;
53931;SDS011;39844;52.496;13.482;2024-03-07T14:02:37;14.23;;;7.30;;
53931;SDS011;39844;52.496;13.482;2024-03-07T14:16:21;10.03;;;5.73;;
53931;SDS011;39844;52.496;13.482;2024-03-07T14:25:00;9.73;;;5.67;;
53931;SDS011;39844;52.496;13.482;2024-03-07T14:27:57;15.93;;;6.53;;
53931;SDS011;39844;52.496;13.482;2024-03-07T14:32:35;12.40;;;6.03;;
53931;SDS011;39844;52.496;13.482;2024-03-07T14:35:05;10.97;;;6.70;;
53931;SDS011;39844;52.496;13.482;2024-03-07T14:37:54;12.87;;;6.23;;
53931;SDS011;39844;52.496;13.482;2024-03-07T14:40:26;9.80;;;6.17;;
53931;SDS011;39844;52.496;13.482;2024-03-07T14:42:53;10.67;;;6.30;;
53931;SDS011;39844;52.496;13.482;2024-03-07T14:45:21;10.90;;;6.33;;
53931;SDS011;39844;52.496;13.482;2024-03-07T14:47:50;13.27;;;6.53;;